createdAt,value
2016-07-26T00:00:10.800Z,0
2016-07-26T00:01:11.512Z,0
2016-07-26T00:02:10.199Z,0
2016-07-26T00:03:11.635Z,0
2016-07-26T00:04:11.667Z,0
2016-07-26T00:05:11.167Z,0
2016-07-26T00:06:11.806Z,0
2016-07-26T00:07:11.093Z,0
2016-07-26T00:08:10.494Z,0
2016-07-26T00:09:11.916Z,0
2016-07-26T00:10:11.262Z,0
2016-07-26T00:11:12.058Z,0
2016-07-26T00:12:12.079Z,0
2016-07-26T00:13:11.434Z,0
2016-07-26T00:14:12.137Z,0
2016-07-26T00:15:12.235Z,0
2016-07-26T00:16:12.277Z,0
2016-07-26T00:17:11.604Z,0
2016-07-26T00:18:11.010Z,0
2016-07-26T00:19:12.424Z,0
2016-07-26T00:20:11.385Z,0
2016-07-26T00:21:12.522Z,0
2016-07-26T00:22:12.642Z,0
2016-07-26T00:23:11.928Z,0
2016-07-26T00:24:12.882Z,0
2016-07-26T00:25:12.068Z,0
2016-07-26T00:26:12.079Z,0
2016-07-26T00:27:12.126Z,0
2016-07-26T00:28:12.875Z,0
2016-07-26T00:29:12.900Z,0
2016-07-26T00:30:13.019Z,0
2016-07-26T00:31:12.989Z,0
2016-07-26T00:32:13.083Z,0
2016-07-26T00:33:12.418Z,0
2016-07-26T00:34:12.476Z,0
2016-07-26T00:35:13.203Z,0
2016-07-26T00:36:13.296Z,0
2016-07-26T00:37:12.647Z,0
2016-07-26T00:38:13.404Z,0
2016-07-26T00:39:13.421Z,0
2016-07-26T00:40:13.554Z,0
2016-07-26T00:41:13.514Z,0
2016-07-26T00:42:13.580Z,0
2016-07-26T00:43:13.596Z,0
2016-07-26T00:44:12.982Z,0
2016-07-26T00:45:13.726Z,0
2016-07-26T00:46:27.980Z,0
2016-07-26T00:47:13.138Z,0
2016-07-26T00:48:12.474Z,0
2016-07-26T00:49:13.958Z,0
2016-07-26T00:50:14.211Z,0
2016-07-26T00:51:14.036Z,0
2016-07-26T00:52:14.069Z,0
2016-07-26T00:53:13.432Z,0
2016-07-26T00:54:14.192Z,0
2016-07-26T00:55:14.455Z,0
2016-07-26T00:56:12.852Z,0
2016-07-26T00:57:14.334Z,0
2016-07-26T00:58:14.608Z,0
2016-07-26T00:59:13.035Z,0
2016-07-26T01:00:14.460Z,0
2016-07-26T01:01:14.514Z,0
2016-07-26T01:02:14.565Z,0
2016-07-26T01:03:14.625Z,0
2016-07-26T01:04:14.693Z,0
2016-07-26T01:05:28.955Z,0
2016-07-26T01:06:14.092Z,0
2016-07-26T01:07:13.420Z,0
2016-07-26T01:08:14.885Z,0
2016-07-26T01:09:14.941Z,0
2016-07-26T01:10:15.105Z,0
2016-07-26T01:11:14.322Z,0
2016-07-26T01:12:13.692Z,0
2016-07-26T01:13:15.151Z,0
2016-07-26T01:14:15.215Z,0
2016-07-26T01:15:14.532Z,0
2016-07-26T01:16:15.254Z,0
2016-07-26T01:17:15.331Z,0
2016-07-26T01:18:13.973Z,0
2016-07-26T01:19:15.430Z,0
2016-07-26T01:20:15.482Z,0
2016-07-26T01:21:15.542Z,0
2016-07-26T01:22:15.578Z,0
2016-07-26T01:23:14.918Z,0
2016-07-26T01:24:14.974Z,0
2016-07-26T01:25:15.782Z,0
2016-07-26T01:26:15.783Z,0
2016-07-26T01:27:15.145Z,0
2016-07-26T01:28:15.276Z,0
2016-07-26T01:29:15.942Z,0
2016-07-26T01:30:15.276Z,0
2016-07-26T01:31:14.644Z,0
2016-07-26T01:32:16.081Z,0
2016-07-26T01:33:16.168Z,0
2016-07-26T01:34:15.513Z,0
2016-07-26T01:35:15.547Z,0
2016-07-26T01:36:16.298Z,0
2016-07-26T01:37:16.337Z,0
2016-07-26T01:38:14.963Z,0
2016-07-26T01:39:16.405Z,0
2016-07-26T01:40:16.507Z,0
2016-07-26T01:41:16.558Z,0
2016-07-26T01:42:16.600Z,0
2016-07-26T01:43:16.624Z,0
2016-07-26T01:44:15.996Z,0
2016-07-26T01:45:16.026Z,0
2016-07-26T01:46:16.830Z,0
2016-07-26T01:47:16.843Z,0
2016-07-26T01:48:16.932Z,0
2016-07-26T01:49:16.936Z,0
2016-07-26T01:50:17.151Z,0
2016-07-26T01:51:16.359Z,0
2016-07-26T01:52:15.697Z,0
2016-07-26T01:53:17.123Z,0
2016-07-26T01:54:16.697Z,0
2016-07-26T01:55:16.580Z,0
2016-07-26T01:56:17.270Z,0
2016-07-26T01:57:16.615Z,0
2016-07-26T01:58:17.377Z,0
2016-07-26T01:59:17.447Z,0
2016-07-26T02:00:17.521Z,0
2016-07-26T02:01:17.540Z,0
2016-07-26T02:02:17.602Z,0
2016-07-26T02:03:16.247Z,0
2016-07-26T02:04:17.676Z,0
2016-07-26T02:05:17.740Z,0
2016-07-26T02:06:17.079Z,0
2016-07-26T02:07:17.138Z,0
2016-07-26T02:08:17.199Z,0
2016-07-26T02:09:32.164Z,0
2016-07-26T02:10:17.985Z,0
2016-07-26T02:11:17.336Z,0
2016-07-26T02:12:18.062Z,0
2016-07-26T02:13:17.425Z,0
2016-07-26T02:14:17.479Z,0
2016-07-26T02:15:16.826Z,0
2016-07-26T02:16:18.301Z,0
2016-07-26T02:17:17.629Z,0
2016-07-26T02:18:18.390Z,0
2016-07-26T02:19:17.710Z,0
2016-07-26T02:20:17.784Z,0
2016-07-26T02:21:17.842Z,0
2016-07-26T02:22:17.165Z,0
2016-07-26T02:23:17.214Z,0
2016-07-26T02:24:17.985Z,0
2016-07-26T02:25:18.032Z,0
2016-07-26T02:26:18.778Z,0
2016-07-26T02:27:18.853Z,0
2016-07-26T02:28:18.218Z,0
2016-07-26T02:29:18.241Z,0
2016-07-26T02:30:19.020Z,0
2016-07-26T02:31:18.335Z,0
2016-07-26T02:32:18.395Z,0
2016-07-26T02:33:18.461Z,0
2016-07-26T02:34:17.775Z,0
2016-07-26T02:35:19.247Z,0
2016-07-26T02:36:18.566Z,0
2016-07-26T02:37:18.636Z,0
2016-07-26T02:38:19.392Z,0
2016-07-26T02:39:18.727Z,0
2016-07-26T02:40:19.490Z,0
2016-07-26T02:41:18.936Z,0
2016-07-26T02:42:18.871Z,0
2016-07-26T02:43:18.229Z,0
2016-07-26T02:44:18.276Z,0
2016-07-26T02:45:19.035Z,0
2016-07-26T02:46:19.765Z,0
2016-07-26T02:47:19.792Z,0
2016-07-26T02:48:18.465Z,0
2016-07-26T02:49:19.912Z,0
2016-07-26T02:50:19.659Z,0
2016-07-26T02:51:20.023Z,0
2016-07-26T02:52:20.083Z,0
2016-07-26T02:53:20.143Z,0
2016-07-26T02:54:18.764Z,0
2016-07-26T02:55:20.203Z,0
2016-07-26T02:56:20.289Z,0
2016-07-26T02:57:19.670Z,0
2016-07-26T02:58:20.378Z,0
2016-07-26T02:59:20.614Z,0
2016-07-26T03:00:19.799Z,0
2016-07-26T03:01:19.839Z,0
2016-07-26T03:02:20.580Z,0
2016-07-26T03:03:20.625Z,0
2016-07-26T03:05:20.753Z,0
2016-07-26T03:06:20.799Z,0
2016-07-26T03:07:20.143Z,0
2016-07-26T03:08:20.890Z,0
2016-07-26T03:09:20.238Z,0
2016-07-26T03:10:20.285Z,0
2016-07-26T03:11:21.014Z,0
2016-07-26T03:12:21.110Z,0
2016-07-26T03:13:20.462Z,0
2016-07-26T03:14:21.191Z,0
2016-07-26T03:15:21.214Z,0
2016-07-26T03:16:21.307Z,0
2016-07-26T03:17:19.976Z,0
2016-07-26T03:18:20.024Z,0
2016-07-26T03:20:21.511Z,0
2016-07-26T03:21:20.856Z,0
2016-07-26T03:22:20.912Z,0
2016-07-26T03:23:20.964Z,0
2016-07-26T03:24:21.683Z,0
2016-07-26T03:25:21.763Z,0
2016-07-26T03:26:21.796Z,0
2016-07-26T03:27:21.155Z,0
2016-07-26T03:28:21.915Z,0
2016-07-26T03:29:21.978Z,0
2016-07-26T03:30:22.003Z,0
2016-07-26T03:31:22.067Z,0
2016-07-26T03:32:22.127Z,0
2016-07-26T03:33:21.455Z,0
2016-07-26T03:34:20.580Z,5
2016-07-26T03:35:21.551Z,5
2016-07-26T03:36:21.618Z,5
2016-07-26T03:37:21.666Z,5
2016-07-26T03:38:22.396Z,5
2016-07-26T03:39:22.485Z,5
2016-07-26T03:40:22.503Z,10
2016-07-26T03:41:21.854Z,10
2016-07-26T03:42:22.594Z,10
2016-07-26T03:43:21.247Z,10
2016-07-26T03:44:22.680Z,15
2016-07-26T03:45:22.762Z,15
2016-07-26T03:46:22.083Z,15
2016-07-26T03:47:22.859Z,20
2016-07-26T03:48:21.514Z,20
2016-07-26T03:50:22.455Z,25
2016-07-26T03:51:23.267Z,25
2016-07-26T03:52:23.141Z,25
2016-07-26T03:53:23.160Z,30
2016-07-26T03:54:22.524Z,30
2016-07-26T03:55:22.544Z,35
2016-07-26T03:56:23.354Z,35
2016-07-26T03:57:23.326Z,40
2016-07-26T03:58:23.377Z,40
2016-07-26T03:59:23.446Z,45
2016-07-26T04:00:23.513Z,50
2016-07-26T04:01:22.876Z,50
2016-07-26T04:03:22.232Z,60
2016-07-26T04:05:23.722Z,65
2016-07-26T04:06:23.067Z,70
2016-07-26T04:07:23.839Z,70
2016-07-26T04:08:23.208Z,75
2016-07-26T04:09:23.934Z,80
2016-07-26T04:10:24.009Z,85
2016-07-26T04:11:23.338Z,90
2016-07-26T04:12:23.395Z,95
2016-07-26T04:13:23.464Z,100
2016-07-26T04:14:24.184Z,100
2016-07-26T04:15:24.249Z,105
2016-07-26T04:16:23.589Z,110
2016-07-26T04:17:24.574Z,110
2016-07-26T04:18:24.401Z,115
2016-07-26T04:20:23.783Z,120
2016-07-26T04:21:23.843Z,125
2016-07-26T04:22:23.908Z,130
2016-07-26T04:23:24.633Z,135
2016-07-26T04:24:24.701Z,145
2016-07-26T04:25:24.035Z,150
2016-07-26T04:26:25.007Z,150
2016-07-26T04:27:24.994Z,160
2016-07-26T04:28:24.163Z,165
2016-07-26T04:29:24.884Z,170
2016-07-26T04:30:25.027Z,175
2016-07-26T04:31:23.643Z,180
2016-07-26T04:32:25.052Z,185
2016-07-26T04:33:25.142Z,185
2016-07-26T04:35:23.804Z,195
2016-07-26T04:36:25.276Z,200
2016-07-26T04:37:24.612Z,205
2016-07-26T04:38:24.894Z,210
2016-07-26T04:39:25.627Z,215
2016-07-26T04:40:26.122Z,225
2016-07-26T04:41:24.783Z,235
2016-07-26T04:42:25.567Z,245
2016-07-26T04:43:24.204Z,255
2016-07-26T04:44:24.955Z,270
2016-07-26T04:45:25.752Z,285
2016-07-26T04:46:25.750Z,295
2016-07-26T04:47:25.809Z,310
2016-07-26T04:48:25.126Z,310
2016-07-26T04:50:26.021Z,325
2016-07-26T04:51:26.010Z,325
2016-07-26T04:52:26.265Z,325
2016-07-26T04:53:25.457Z,330
2016-07-26T04:54:26.156Z,330
2016-07-26T04:55:25.508Z,340
2016-07-26T04:56:26.247Z,350
2016-07-26T04:57:26.319Z,355
2016-07-26T04:58:26.345Z,380
2016-07-26T04:59:25.002Z,385
2016-07-26T05:00:25.762Z,410
2016-07-26T05:01:26.488Z,440
2016-07-26T05:02:25.839Z,440
2016-07-26T05:03:25.911Z,430
2016-07-26T05:05:25.978Z,405
2016-07-26T05:06:26.252Z,415
2016-07-26T05:07:26.822Z,430
2016-07-26T05:08:26.144Z,440
2016-07-26T05:09:26.904Z,450
2016-07-26T05:10:26.921Z,455
2016-07-26T05:11:25.587Z,455
2016-07-26T05:12:26.380Z,450
2016-07-26T05:13:26.613Z,365
2016-07-26T05:14:27.137Z,320
2016-07-26T05:15:26.492Z,295
2016-07-26T05:16:27.286Z,285
2016-07-26T05:17:26.101Z,315
2016-07-26T05:18:27.350Z,400
2016-07-26T05:20:27.464Z,320
2016-07-26T05:21:27.546Z,290
2016-07-26T05:22:26.832Z,300
2016-07-26T05:23:27.616Z,300
2016-07-26T05:24:27.665Z,315
2016-07-26T05:25:26.298Z,465
2016-07-26T05:26:27.781Z,355
2016-07-26T05:27:27.832Z,215
2016-07-26T05:28:27.879Z,180
2016-07-26T05:29:27.897Z,155
2016-07-26T05:30:28.202Z,150
2016-07-26T05:31:27.329Z,145
2016-07-26T05:32:41.559Z,140
2016-07-26T05:34:28.149Z,160
2016-07-26T05:35:27.538Z,170
2016-07-26T05:36:28.237Z,185
2016-07-26T05:37:26.897Z,200
2016-07-26T05:38:27.670Z,195
2016-07-26T05:39:28.450Z,200
2016-07-26T05:40:27.077Z,205
2016-07-26T05:41:28.504Z,200
2016-07-26T05:42:28.777Z,190
2016-07-26T05:43:28.841Z,195
2016-07-26T05:44:27.964Z,195
2016-07-26T05:45:27.997Z,190
2016-07-26T05:46:28.798Z,180
2016-07-26T05:47:28.834Z,180
2016-07-26T05:48:28.867Z,185
2016-07-26T05:50:28.481Z,190
2016-07-26T05:51:28.987Z,195
2016-07-26T05:52:29.054Z,205
2016-07-26T05:53:28.384Z,230
2016-07-26T05:54:28.474Z,230
2016-07-26T05:55:28.722Z,260
2016-07-26T05:56:29.277Z,300
2016-07-26T05:57:28.609Z,320
2016-07-26T05:58:28.704Z,390
2016-07-26T05:59:29.458Z,430
2016-07-26T06:00:28.739Z,445
2016-07-26T06:01:28.847Z,470
2016-07-26T06:02:28.861Z,515
2016-07-26T06:03:28.885Z,605
2016-07-26T06:04:28.002Z,695
2016-07-26T06:05:29.716Z,760
2016-07-26T06:06:29.773Z,785
2016-07-26T06:07:42.983Z,800
2016-07-26T06:08:29.872Z,800
2016-07-26T06:09:29.429Z,815
2016-07-26T06:10:30.005Z,830
2016-07-26T06:11:30.296Z,860
2016-07-26T06:12:29.373Z,880
2016-07-26T06:13:30.123Z,905
2016-07-26T06:14:30.216Z,925
2016-07-26T06:15:30.473Z,950
2016-07-26T06:16:30.288Z,975
2016-07-26T06:17:30.393Z,1010
2016-07-26T06:18:30.443Z,1015
2016-07-26T06:19:28.805Z,995
2016-07-26T06:20:30.659Z,980
2016-07-26T06:21:30.761Z,975
2016-07-26T06:22:29.874Z,980
2016-07-26T06:23:29.968Z,960
2016-07-26T06:24:30.717Z,940
2016-07-26T06:25:30.069Z,925
2016-07-26T06:26:29.432Z,910
2016-07-26T06:27:30.149Z,905
2016-07-26T06:28:30.855Z,910
2016-07-26T06:29:30.229Z,915
2016-07-26T06:30:30.322Z,920
2016-07-26T06:31:30.324Z,915
2016-07-26T06:32:31.102Z,910
2016-07-26T06:33:31.376Z,880
2016-07-26T06:34:30.025Z,855
2016-07-26T06:35:30.576Z,835
2016-07-26T06:36:29.927Z,825
2016-07-26T06:37:29.951Z,850
2016-07-26T06:38:30.731Z,885
2016-07-26T06:39:30.729Z,920
2016-07-26T06:40:31.542Z,940
2016-07-26T06:41:30.900Z,950
2016-07-26T06:42:31.613Z,940
2016-07-26T06:43:31.728Z,945
2016-07-26T06:44:30.990Z,955
2016-07-26T06:45:44.968Z,1025
2016-07-26T06:46:32.001Z,1125
2016-07-26T06:47:31.392Z,1005
2016-07-26T06:48:31.964Z,1000
2016-07-26T06:49:31.013Z,1020
2016-07-26T06:50:32.027Z,1045
2016-07-26T06:51:32.103Z,1070
2016-07-26T06:52:32.167Z,1085
2016-07-26T06:53:32.384Z,1080
2016-07-26T06:54:31.549Z,1065
2016-07-26T06:55:32.299Z,1050
2016-07-26T06:56:31.668Z,1035
2016-07-26T06:57:30.960Z,1025
2016-07-26T06:58:31.762Z,1020
2016-07-26T06:59:32.526Z,1020
2016-07-26T07:00:32.842Z,1015
2016-07-26T07:01:32.648Z,1005
2016-07-26T07:02:31.948Z,1000
2016-07-26T07:03:31.989Z,1010
2016-07-26T07:04:30.889Z,1035
2016-07-26T07:05:32.849Z,1065
2016-07-26T07:06:31.471Z,1090
2016-07-26T07:07:33.012Z,1125
2016-07-26T07:08:33.036Z,1150
2016-07-26T07:09:32.346Z,1165
2016-07-26T07:10:32.612Z,1175
2016-07-26T07:11:33.046Z,1175
2016-07-26T07:12:33.188Z,1155
2016-07-26T07:13:33.278Z,1150
2016-07-26T07:14:32.555Z,1170
2016-07-26T07:15:33.315Z,1185
2016-07-26T07:16:33.463Z,1215
2016-07-26T07:17:32.749Z,1245
2016-07-26T07:18:32.803Z,1265
2016-07-26T07:19:32.897Z,1275
2016-07-26T07:20:32.909Z,1285
2016-07-26T07:21:33.711Z,1285
2016-07-26T07:22:33.153Z,1295
2016-07-26T07:23:33.262Z,1300
2016-07-26T07:24:34.465Z,1310
2016-07-26T07:25:33.885Z,1325
2016-07-26T07:26:33.471Z,1335
2016-07-26T07:27:33.963Z,1330
2016-07-26T07:28:33.322Z,1320
2016-07-26T07:29:34.094Z,1315
2016-07-26T07:30:33.454Z,1335
2016-07-26T07:31:34.160Z,1315
2016-07-26T07:32:33.531Z,1305
2016-07-26T07:33:34.312Z,1295
2016-07-26T07:34:33.636Z,1295
2016-07-26T07:35:32.983Z,1300
2016-07-26T07:36:33.757Z,1330
2016-07-26T07:37:34.542Z,1385
2016-07-26T07:38:34.572Z,1475
2016-07-26T07:39:34.586Z,1625
2016-07-26T07:40:33.940Z,1790
2016-07-26T07:41:34.655Z,2095
2016-07-26T07:42:34.036Z,2100
2016-07-26T07:43:34.749Z,1950
2016-07-26T07:44:34.862Z,3265
2016-07-26T07:45:34.194Z,2615
2016-07-26T07:46:35.009Z,2740
2016-07-26T07:47:34.319Z,3000
2016-07-26T07:48:35.239Z,2330
2016-07-26T07:49:33.932Z,2760
2016-07-26T07:50:35.206Z,2760
2016-07-26T07:51:35.260Z,2370
2016-07-26T07:52:34.601Z,2225
2016-07-26T07:53:34.805Z,2160
2016-07-26T07:54:35.387Z,2080
2016-07-26T07:55:34.707Z,1890
2016-07-26T07:56:35.494Z,1810
2016-07-26T07:57:34.135Z,1835
2016-07-26T07:58:34.886Z,1985
2016-07-26T07:59:35.658Z,2160
2016-07-26T08:00:34.923Z,2325
2016-07-26T08:01:35.040Z,1900
2016-07-26T08:02:35.304Z,1630
2016-07-26T08:03:34.674Z,1410
2016-07-26T08:04:35.898Z,1325
2016-07-26T08:05:35.286Z,1250
2016-07-26T08:06:35.944Z,1165
2016-07-26T08:07:34.660Z,1120
2016-07-26T08:08:35.383Z,1120
2016-07-26T08:09:36.211Z,1155
2016-07-26T08:10:34.810Z,1205
2016-07-26T08:11:36.297Z,1240
2016-07-26T08:12:36.313Z,1290
2016-07-26T08:13:36.386Z,1255
2016-07-26T08:14:35.739Z,1255
2016-07-26T08:15:36.452Z,1275
2016-07-26T08:16:35.813Z,1285
2016-07-26T08:17:35.172Z,1355
2016-07-26T08:18:36.565Z,1385
2016-07-26T08:19:36.004Z,1275
2016-07-26T08:20:36.692Z,1470
2016-07-26T08:21:36.063Z,2685
2016-07-26T08:22:35.466Z,1365
2016-07-26T08:23:36.884Z,1390
2016-07-26T08:24:36.947Z,1340
2016-07-26T08:25:36.324Z,1315
2016-07-26T08:26:37.001Z,1155
2016-07-26T08:27:36.384Z,1165
2016-07-26T08:28:36.432Z,1310
2016-07-26T08:29:37.198Z,1770
2016-07-26T08:30:37.220Z,2900
2016-07-26T08:31:35.891Z,2665
2016-07-26T08:32:37.388Z,2750
2016-07-26T08:33:37.327Z,2870
2016-07-26T08:34:37.490Z,2560
2016-07-26T08:35:37.508Z,2520
2016-07-26T08:36:37.576Z,2560
2016-07-26T08:37:36.176Z,1760
2016-07-26T08:38:37.685Z,1520
2016-07-26T08:39:37.939Z,1480
2016-07-26T08:40:37.020Z,1610
2016-07-26T08:41:37.814Z,1675
2016-07-26T08:42:37.819Z,1655
2016-07-26T08:43:36.470Z,1635
2016-07-26T08:44:37.232Z,1615
2016-07-26T08:45:36.624Z,1495
2016-07-26T08:46:38.048Z,1375
2016-07-26T08:47:38.151Z,1220
2016-07-26T08:48:38.172Z,1160
2016-07-26T08:49:37.513Z,1345
2016-07-26T08:50:36.886Z,1525
2016-07-26T08:51:38.345Z,1300
2016-07-26T08:52:38.327Z,1560
2016-07-26T08:53:37.657Z,2880
2016-07-26T08:54:38.431Z,2745
2016-07-26T08:55:38.528Z,2400
2016-07-26T08:56:37.867Z,2170
2016-07-26T08:57:37.194Z,2355
2016-07-26T08:58:37.958Z,2390
2016-07-26T08:59:38.032Z,2590
2016-07-26T09:00:38.773Z,2970
2016-07-26T09:01:37.392Z,2690
2016-07-26T09:02:38.825Z,2215
2016-07-26T09:03:38.228Z,1900
2016-07-26T09:04:39.011Z,1945
2016-07-26T09:05:38.323Z,1975
2016-07-26T09:06:37.882Z,1930
2016-07-26T09:07:38.661Z,1645
2016-07-26T09:08:39.141Z,1315
2016-07-26T09:09:37.809Z,1335
2016-07-26T09:10:39.460Z,2105
2016-07-26T09:11:53.498Z,3225
2016-07-26T09:12:38.010Z,3420
2016-07-26T09:13:39.454Z,2830
2016-07-26T09:14:38.758Z,2680
2016-07-26T09:15:39.510Z,2130
2016-07-26T09:16:38.849Z,1800
2016-07-26T09:17:38.211Z,1735
2016-07-26T09:18:37.780Z,2140
2016-07-26T09:19:39.721Z,2845
2016-07-26T09:20:39.114Z,2565
2016-07-26T09:21:39.829Z,1670
2016-07-26T09:22:39.185Z,1460
2016-07-26T09:23:39.962Z,1540
2016-07-26T09:24:39.959Z,1585
2016-07-26T09:25:40.016Z,2180
2016-07-26T09:26:39.356Z,2610
2016-07-26T09:27:38.690Z,2275
2016-07-26T09:28:38.759Z,2085
2016-07-26T09:29:40.264Z,2495
2016-07-26T09:30:39.578Z,4265
2016-07-26T09:31:39.624Z,4440
2016-07-26T09:32:39.661Z,3035
2016-07-26T09:33:39.067Z,2925
2016-07-26T09:34:40.456Z,2370
2016-07-26T09:35:39.798Z,2160
2016-07-26T09:36:40.595Z,2140
2016-07-26T09:37:39.982Z,2135
2016-07-26T09:38:40.635Z,2440
2016-07-26T09:39:40.035Z,3355
2016-07-26T09:40:40.770Z,3100
2016-07-26T09:41:40.854Z,2770
2016-07-26T09:42:40.146Z,2275
2016-07-26T09:43:40.956Z,2020
2016-07-26T09:44:39.608Z,1740
2016-07-26T09:45:41.028Z,1580
2016-07-26T09:46:41.108Z,1495
2016-07-26T09:47:41.170Z,1665
2016-07-26T09:48:40.557Z,1995
2016-07-26T09:49:41.251Z,2170
2016-07-26T09:50:41.283Z,2430
2016-07-26T09:51:41.380Z,2920
2016-07-26T09:52:40.704Z,3750
2016-07-26T09:53:41.504Z,5525
2016-07-26T09:54:41.495Z,3630
2016-07-26T09:55:40.213Z,2485
2016-07-26T09:56:40.935Z,1490
2016-07-26T09:57:41.679Z,1220
2016-07-26T09:58:41.013Z,1120
2016-07-26T09:59:41.055Z,815
2016-07-26T10:00:41.855Z,715
2016-07-26T10:01:41.930Z,700
2016-07-26T10:02:41.275Z,640
2016-07-26T10:03:41.269Z,680
2016-07-26T10:04:42.069Z,700
2016-07-26T10:05:41.401Z,780
2016-07-26T10:06:42.115Z,905
2016-07-26T10:07:42.174Z,925
2016-07-26T10:08:40.137Z,930
2016-07-26T10:09:42.264Z,970
2016-07-26T10:10:42.383Z,1060
2016-07-26T10:11:42.399Z,1025
2016-07-26T10:12:41.763Z,885
2016-07-26T10:13:42.502Z,820
2016-07-26T10:14:42.535Z,785
2016-07-26T10:15:41.908Z,710
2016-07-26T10:16:41.247Z,665
2016-07-26T10:17:41.317Z,655
2016-07-26T10:18:42.068Z,665
2016-07-26T10:19:42.043Z,640
2016-07-26T10:20:42.857Z,620
2016-07-26T10:21:41.470Z,595
2016-07-26T10:22:41.510Z,580
2016-07-26T10:23:42.310Z,575
2016-07-26T10:24:42.388Z,580
2016-07-26T10:25:43.143Z,555
2016-07-26T10:26:43.108Z,545
2016-07-26T10:27:42.568Z,505
2016-07-26T10:28:42.539Z,415
2016-07-26T10:29:43.338Z,400
2016-07-26T10:30:43.300Z,420
2016-07-26T10:31:43.374Z,425
2016-07-26T10:32:42.284Z,500
2016-07-26T10:33:43.576Z,540
2016-07-26T10:34:42.821Z,445
2016-07-26T10:35:42.919Z,480
2016-07-26T10:36:43.657Z,470
2016-07-26T10:37:43.714Z,525
2016-07-26T10:38:43.017Z,580
2016-07-26T10:39:43.870Z,670
2016-07-26T10:40:43.168Z,800
2016-07-26T10:41:43.894Z,945
2016-07-26T10:42:43.986Z,975
2016-07-26T10:43:44.043Z,920
2016-07-26T10:44:42.627Z,890
2016-07-26T10:45:43.433Z,885
2016-07-26T10:46:43.476Z,910
2016-07-26T10:47:44.244Z,880
2016-07-26T10:48:44.283Z,800
2016-07-26T10:49:44.344Z,740
2016-07-26T10:50:44.322Z,740
2016-07-26T10:51:43.706Z,720
2016-07-26T10:52:43.779Z,705
2016-07-26T10:53:43.839Z,720
2016-07-26T10:54:44.607Z,695
2016-07-26T10:55:44.670Z,695
2016-07-26T10:56:44.693Z,710
2016-07-26T10:57:44.739Z,705
2016-07-26T10:58:44.832Z,655
2016-07-26T10:59:43.416Z,585
2016-07-26T11:00:44.190Z,580
2016-07-26T11:01:44.890Z,560
2016-07-26T11:02:44.290Z,560
2016-07-26T11:03:45.024Z,570
2016-07-26T11:04:43.658Z,570
2016-07-26T11:05:44.429Z,580
2016-07-26T11:06:44.507Z,595
2016-07-26T11:07:44.505Z,640
2016-07-26T11:08:45.284Z,655
2016-07-26T11:09:45.339Z,680
2016-07-26T11:10:44.680Z,725
2016-07-26T11:11:44.029Z,775
2016-07-26T11:12:44.068Z,820
2016-07-26T11:13:45.564Z,880
2016-07-26T11:14:45.573Z,950
2016-07-26T11:15:45.671Z,1065
2016-07-26T11:16:44.971Z,1180
2016-07-26T11:17:45.790Z,1250
2016-07-26T11:18:45.757Z,1010
2016-07-26T11:19:45.903Z,995
2016-07-26T11:20:45.226Z,1000
2016-07-26T11:21:46.006Z,855
2016-07-26T11:22:44.647Z,790
2016-07-26T11:23:46.039Z,700
2016-07-26T11:24:45.413Z,600
2016-07-26T11:25:46.188Z,575
2016-07-26T11:26:46.202Z,715
2016-07-26T11:27:46.279Z,775
2016-07-26T11:28:46.325Z,805
2016-07-26T11:29:46.410Z,785
2016-07-26T11:30:46.360Z,675
2016-07-26T11:31:46.487Z,660
2016-07-26T11:32:46.508Z,650
2016-07-26T11:33:45.870Z,635
2016-07-26T11:34:46.634Z,590
2016-07-26T11:35:46.118Z,540
2016-07-26T11:36:46.033Z,520
2016-07-26T11:37:46.734Z,505
2016-07-26T11:38:45.423Z,520
2016-07-26T11:39:46.843Z,530
2016-07-26T11:40:46.923Z,590
2016-07-26T11:41:46.986Z,625
2016-07-26T11:42:47.045Z,655
2016-07-26T11:43:46.367Z,665
2016-07-26T11:44:46.375Z,665
2016-07-26T11:45:45.769Z,660
2016-07-26T11:46:47.263Z,660
2016-07-26T11:47:45.826Z,660
2016-07-26T11:48:46.558Z,665
2016-07-26T11:49:46.649Z,675
2016-07-26T11:50:46.880Z,685
2016-07-26T11:51:47.422Z,680
2016-07-26T11:52:47.530Z,670
2016-07-26T11:53:46.894Z,660
2016-07-26T11:54:47.592Z,635
2016-07-26T11:55:46.955Z,620
2016-07-26T11:56:46.963Z,605
2016-07-26T11:57:47.833Z,600
2016-07-26T11:58:47.106Z,595
2016-07-26T11:59:47.172Z,605
2016-07-26T12:00:47.159Z,595
2016-07-26T12:01:47.290Z,590
2016-07-26T12:02:47.315Z,590
2016-07-26T12:03:48.080Z,590
2016-07-26T12:04:47.419Z,595
2016-07-26T12:05:48.180Z,600
2016-07-26T12:06:47.555Z,600
2016-07-26T12:07:46.858Z,610
2016-07-26T12:08:48.335Z,620
2016-07-26T12:09:47.707Z,630
2016-07-26T12:10:47.753Z,645
2016-07-26T12:11:48.426Z,650
2016-07-26T12:12:47.098Z,655
2016-07-26T12:13:47.856Z,670
2016-07-26T12:14:47.908Z,675
2016-07-26T12:15:48.696Z,685
2016-07-26T12:16:48.042Z,720
2016-07-26T12:17:48.794Z,740
2016-07-26T12:18:48.153Z,785
2016-07-26T12:19:48.132Z,840
2016-07-26T12:20:48.251Z,890
2016-07-26T12:21:49.054Z,980
2016-07-26T12:22:49.036Z,1070
2016-07-26T12:23:48.451Z,1180
2016-07-26T12:24:48.413Z,1250
2016-07-26T12:25:49.410Z,1340
2016-07-26T12:26:49.213Z,1425
2016-07-26T12:27:49.286Z,1300
2016-07-26T12:28:48.683Z,1200
2016-07-26T12:29:48.703Z,1215
2016-07-26T12:30:49.486Z,1060
2016-07-26T12:31:47.407Z,1185
2016-07-26T12:32:49.529Z,1175
2016-07-26T12:33:49.608Z,1185
2016-07-26T12:34:48.921Z,860
2016-07-26T12:35:49.782Z,800
2016-07-26T12:36:49.093Z,1055
2016-07-26T12:37:48.424Z,1145
2016-07-26T12:38:49.197Z,1165
2016-07-26T12:39:49.234Z,1175
2016-07-26T12:40:49.310Z,1185
2016-07-26T12:41:49.364Z,1185
2016-07-26T12:42:49.470Z,1175
2016-07-26T12:43:49.421Z,1175
2016-07-26T12:44:49.477Z,1160
2016-07-26T12:45:49.550Z,1150
2016-07-26T12:46:50.341Z,1145
2016-07-26T12:47:49.636Z,1140
2016-07-26T12:48:49.719Z,1140
2016-07-26T12:51:49.864Z,1220
2016-07-26T12:52:50.618Z,1245
2016-07-26T12:53:50.650Z,1290
2016-07-26T12:54:50.700Z,1330
2016-07-26T12:55:50.803Z,1340
2016-07-26T12:56:50.796Z,1345
2016-07-26T12:57:49.451Z,1395
2016-07-26T12:58:50.921Z,1420
2016-07-26T12:59:50.980Z,1485
2016-07-26T13:00:51.012Z,1570
2016-07-26T13:01:50.550Z,1575
2016-07-26T13:02:51.147Z,1460
2016-07-26T13:03:51.221Z,1445
2016-07-26T13:04:50.510Z,1410
2016-07-26T13:05:51.303Z,1315
2016-07-26T13:06:51.384Z,1350
2016-07-26T13:07:51.395Z,1595
2016-07-26T13:08:50.720Z,1965
2016-07-26T13:09:51.513Z,2125
2016-07-26T13:10:50.121Z,2405
2016-07-26T13:11:50.905Z,2255
2016-07-26T13:12:51.700Z,2180
2016-07-26T13:13:51.724Z,2425
2016-07-26T13:14:51.782Z,2830
2016-07-26T13:15:51.371Z,2635
2016-07-26T13:16:51.884Z,2780
2016-07-26T13:17:51.211Z,3540
2016-07-26T13:18:51.252Z,4400
2016-07-26T13:19:50.595Z,4660
2016-07-26T13:20:52.038Z,4720
2016-07-26T13:21:52.158Z,4670
2016-07-26T13:22:51.492Z,4770
2016-07-26T13:23:52.237Z,4780
2016-07-26T13:24:52.286Z,4620
2016-07-26T13:25:52.366Z,4640
2016-07-26T13:26:51.642Z,3310
2016-07-26T13:27:52.491Z,4050
2016-07-26T13:28:52.524Z,3095
2016-07-26T13:29:52.741Z,2625
2016-07-26T13:30:52.551Z,2520
2016-07-26T13:31:51.930Z,2515
2016-07-26T13:32:52.041Z,1650
2016-07-26T13:33:52.046Z,1405
2016-07-26T13:34:52.775Z,1395
2016-07-26T13:35:52.870Z,1395
2016-07-26T13:36:52.161Z,1355
2016-07-26T13:37:52.241Z,1345
2016-07-26T13:38:52.319Z,870
2016-07-26T13:39:53.088Z,995
2016-07-26T13:40:53.106Z,1040
2016-07-26T13:41:51.783Z,1140
2016-07-26T13:42:52.490Z,1260
2016-07-26T13:43:52.610Z,1005
2016-07-26T13:44:53.270Z,965
2016-07-26T13:45:53.431Z,965
2016-07-26T13:46:52.721Z,955
2016-07-26T13:47:53.452Z,1210
2016-07-26T13:48:53.552Z,1295
2016-07-26T13:49:53.586Z,1315
2016-07-26T13:50:53.671Z,1350
2016-07-26T13:51:53.731Z,1120
2016-07-26T13:52:53.818Z,780
2016-07-26T13:53:53.789Z,780
2016-07-26T13:54:53.147Z,790
2016-07-26T13:55:53.218Z,830
2016-07-26T13:56:53.273Z,925
2016-07-26T13:57:53.988Z,895
2016-07-26T13:58:54.121Z,1150
2016-07-26T13:59:53.419Z,1280
2016-07-26T14:00:53.484Z,1335
2016-07-26T14:01:54.225Z,1385
2016-07-26T14:02:53.614Z,1425
2016-07-26T14:03:52.926Z,1445
2016-07-26T14:04:54.417Z,1470
2016-07-26T14:05:53.036Z,1480
2016-07-26T14:06:53.038Z,1490